Time;durP1;ratioP1;P1;durP2;ratioP2;P2;SDS_P1;SDS_P2;PMS_P1;PMS_P2;Temp;Humidity;BMP_temperature;BMP_pressure;BME280_temperature;BME280_humidity;BME280_pressure;Samples;Min_cycle;Max_cycle;Signal;HPM_P1;HPM_P2
2023/06/06 00:00:37;;;;;;;113.30;109.80;;;10.60;99.90;;;;;;5008323;28;20183;-85
2023/06/06 00:03:03;;;;;;;124.03;119.97;;;10.60;99.90;;;;;;5008430;28;20184;-85
2023/06/06 00:05:29;;;;;;;122.70;118.60;;;10.70;99.90;;;;;;4991247;28;20734;-85
2023/06/06 00:07:56;;;;;;;126.63;122.77;;;10.70;99.90;;;;;;4991037;28;20234;-85
2023/06/06 00:10:22;;;;;;;136.17;131.80;;;10.80;99.90;;;;;;4975073;28;20194;-85
2023/06/06 00:12:48;;;;;;;139.30;135.13;;;10.80;99.90;;;;;;4990996;28;20180;-85
2023/06/06 00:15:15;;;;;;;143.53;138.63;;;10.80;99.90;;;;;;5008577;28;20190;-86
2023/06/06 00:17:42;;;;;;;154.07;149.27;;;10.80;99.90;;;;;;5007830;28;20196;-87
2023/06/06 00:20:11;;;;;;;153.73;148.57;;;10.80;99.90;;;;;;4991437;28;20584;-86
2023/06/06 00:22:37;;;;;;;144.33;139.93;;;10.70;99.90;;;;;;5008433;28;20187;-88
2023/06/06 00:25:04;;;;;;;145.27;140.87;;;10.70;99.90;;;;;;4991085;28;20180;-84
2023/06/06 00:27:32;;;;;;;143.37;138.90;;;10.70;99.90;;;;;;5008238;28;20219;-86
2023/06/06 00:29:58;;;;;;;144.37;139.63;;;10.70;99.90;;;;;;4993694;28;20191;-85
2023/06/06 00:32:24;;;;;;;143.50;139.07;;;10.70;99.90;;;;;;4978790;28;20503;-88
2023/06/06 00:34:49;;;;;;;130.90;126.90;;;10.70;99.90;;;;;;4995288;28;20175;-87
2023/06/06 00:37:15;;;;;;;132.30;128.20;;;10.70;99.90;;;;;;4978273;28;20557;-87
2023/06/06 00:39:42;;;;;;;117.57;113.90;;;10.70;99.90;;;;;;4962307;28;20274;-84
2023/06/06 00:42:08;;;;;;;106.30;102.80;;;10.70;99.90;;;;;;4994724;28;20701;-87
2023/06/06 00:44:34;;;;;;;92.53;89.47;;;10.80;99.90;;;;;;5011645;28;20756;-86
2023/06/06 00:47:00;;;;;;;84.13;81.27;;;10.80;99.90;;;;;;5011980;28;20267;-85
2023/06/06 00:49:26;;;;;;;80.30;77.70;;;10.90;99.90;;;;;;4978831;28;20222;-87
2023/06/06 00:51:52;;;;;;;76.67;74.17;;;10.90;99.90;;;;;;5011815;28;20179;-87
2023/06/06 00:54:19;;;;;;;74.60;71.97;;;10.90;99.90;;;;;;4979120;28;20689;-86
2023/06/06 00:56:47;;;;;;;67.00;64.60;;;10.90;99.90;;;;;;4996257;28;20175;-88
2023/06/06 00:59:14;;;;;;;67.90;65.30;;;10.90;99.90;;;;;;4980394;28;20210;-84
2023/06/06 01:01:41;;;;;;;60.73;58.63;;;10.90;99.90;;;;;;4995998;28;20183;-85
2023/06/06 01:04:08;;;;;;;60.37;58.17;;;10.90;99.90;;;;;;4980204;28;20183;-85
2023/06/06 01:06:37;;;;;;;62.10;60.07;;;11.00;99.90;;;;;;4996126;28;20187;-85
2023/06/06 01:09:09;;;;;;;66.00;63.63;;;11.00;99.90;;;;;;4996581;28;20773;-85
2023/06/06 01:11:51;;;;;;;67.87;65.57;;;11.00;99.90;;;;;;4996114;28;20179;-86
2023/06/06 01:14:48;;;;;;;73.20;70.77;;;11.00;99.90;;;;;;5013581;28;20175;-83
2023/06/06 01:17:18;;;;;;;73.60;71.03;;;11.00;99.90;;;;;;4995810;28;20803;-85
2023/06/06 01:19:48;;;;;;;76.47;73.87;;;11.00;99.90;;;;;;4996056;28;20187;-85
2023/06/06 01:22:17;;;;;;;73.47;70.97;;;11.10;99.90;;;;;;4963478;28;20748;-87
2023/06/06 01:24:46;;;;;;;74.70;72.30;;;11.10;99.90;;;;;;4978891;28;20187;-86
2023/06/06 01:27:12;;;;;;;68.03;65.53;;;11.10;99.90;;;;;;5012932;28;20681;-86
2023/06/06 01:29:38;;;;;;;59.90;57.80;;;11.20;99.90;;;;;;4995785;28;20283;-84
2023/06/06 01:32:32;;;;;;;47.30;45.57;;;11.20;99.90;;;;;;4979526;28;20187;-86
2023/06/06 01:35:10;;;;;;;40.47;38.90;;;11.30;99.90;;;;;;4987632;28;20775;-87
2023/06/06 01:37:48;;;;;;;34.03;32.40;;;11.30;99.90;;;;;;4994101;28;20171;-85
2023/06/06 01:40:18;;;;;;;28.90;26.73;;;11.40;99.90;;;;;;5011074;28;20194;-84
2023/06/06 01:42:46;;;;;;;23.23;22.43;;;11.50;99.90;;;;;;5009434;28;20233;-86
2023/06/06 01:45:16;;;;;;;24.33;23.33;;;11.50;99.90;;;;;;5011013;28;20227;-86
2023/06/06 01:47:43;;;;;;;22.30;21.40;;;11.50;99.90;;;;;;4993321;28;20265;-87
2023/06/06 01:50:10;;;;;;;19.23;18.43;;;11.60;99.90;;;;;;4977621;28;20697;-87
2023/06/06 01:52:40;;;;;;;19.90;18.43;;;11.50;99.90;;;;;;4977226;28;20193;-86
2023/06/06 01:55:07;;;;;;;17.83;17.13;;;11.60;99.90;;;;;;4977298;28;20179;-85
2023/06/06 01:57:33;;;;;;;16.07;15.27;;;11.60;99.90;;;;;;5010421;28;20194;-86
2023/06/06 02:00:00;;;;;;;16.83;15.40;;;11.60;99.90;;;;;;4993016;28;20176;-85
2023/06/06 02:02:27;;;;;;;15.07;14.07;;;11.60;99.90;;;;;;4977137;28;20191;-86
2023/06/06 02:04:53;;;;;;;17.33;16.13;;;11.60;99.90;;;;;;4992886;28;20190;-85
2023/06/06 02:07:19;;;;;;;15.23;14.57;;;11.60;99.90;;;;;;4993235;28;20285;-85
2023/06/06 02:09:44;;;;;;;16.30;15.70;;;11.60;99.90;;;;;;4992945;28;20216;-85
2023/06/06 02:12:11;;;;;;;14.93;14.17;;;11.60;99.90;;;;;;4977188;28;20259;-87
2023/06/06 02:14:37;;;;;;;14.50;13.80;;;11.60;99.90;;;;;;4976591;28;20181;-86
2023/06/06 02:17:03;;;;;;;16.33;15.53;;;11.60;99.90;;;;;;5010424;28;20263;-87
2023/06/06 02:19:33;;;;;;;17.60;16.80;;;11.70;99.90;;;;;;4976504;28;20262;-86
2023/06/06 02:21:58;;;;;;;16.83;15.37;;;11.70;99.90;;;;;;4976696;28;20680;-85
2023/06/06 02:24:24;;;;;;;15.10;14.50;;;11.80;99.90;;;;;;4993247;28;20183;-86
2023/06/06 02:26:54;;;;;;;13.43;12.50;;;11.80;99.90;;;;;;4976304;28;20637;-87
2023/06/06 02:29:22;;;;;;;14.57;13.77;;;11.80;99.90;;;;;;5010424;28;20197;-86
2023/06/06 02:31:49;;;;;;;15.43;14.53;;;11.80;99.90;;;;;;4977333;28;20265;-87
2023/06/06 02:34:15;;;;;;;15.50;14.13;;;11.90;99.90;;;;;;4977194;28;20210;-86
2023/06/06 02:36:41;;;;;;;15.13;14.43;;;11.90;99.90;;;;;;4977733;28;20215;-87
2023/06/06 02:39:08;;;;;;;13.60;13.00;;;11.90;99.90;;;;;;4994564;28;20206;-84
2023/06/06 02:41:34;;;;;;;14.90;13.53;;;11.90;99.90;;;;;;4994014;28;20263;-87
2023/06/06 02:44:00;;;;;;;13.87;13.20;;;11.90;99.90;;;;;;5011115;28;20182;-88
2023/06/06 02:46:25;;;;;;;14.90;13.77;;;11.90;99.90;;;;;;4977697;28;20540;-84
2023/06/06 02:48:52;;;;;;;14.33;13.47;;;11.90;99.90;;;;;;4977386;28;20222;-85
2023/06/06 02:51:20;;;;;;;13.40;12.40;;;11.80;99.90;;;;;;4993676;28;20183;-86
2023/06/06 02:53:46;;;;;;;14.40;13.30;;;11.80;99.90;;;;;;4993124;28;20179;-85
2023/06/06 02:56:12;;;;;;;12.23;11.43;;;11.80;99.90;;;;;;4994136;28;20186;-86
2023/06/06 02:58:38;;;;;;;15.63;14.40;;;11.90;99.90;;;;;;4994048;28;20192;-86
2023/06/06 03:01:05;;;;;;;14.97;14.33;;;11.90;99.90;;;;;;4993681;28;20188;-86
2023/06/06 03:03:31;;;;;;;14.57;13.67;;;11.90;99.90;;;;;;4992638;28;20209;-87
2023/06/06 03:05:57;;;;;;;12.80;12.10;;;11.90;99.90;;;;;;4977521;28;20188;-85
2023/06/06 03:08:23;;;;;;;13.80;12.90;;;12.00;99.90;;;;;;5010804;28;20535;-85
2023/06/06 03:10:51;;;;;;;13.17;12.57;;;12.00;99.90;;;;;;4993181;28;20518;-86
2023/06/06 03:13:17;;;;;;;14.30;13.40;;;11.90;99.90;;;;;;4993399;28;20176;-89
2023/06/06 03:15:46;;;;;;;13.87;13.17;;;12.00;99.90;;;;;;5010495;28;20211;-86
2023/06/06 03:18:16;;;;;;;16.47;15.80;;;12.00;99.90;;;;;;4993324;28;20634;-85
2023/06/06 03:20:57;;;;;;;16.97;15.93;;;12.00;99.90;;;;;;5010564;28;20167;-84
2023/06/06 03:23:22;;;;;;;13.73;12.83;;;12.00;99.90;;;;;;4993231;28;20274;-86
2023/06/06 03:25:51;;;;;;;14.40;13.50;;;12.00;99.90;;;;;;4992837;28;20206;-85
2023/06/06 03:28:18;;;;;;;14.70;13.90;;;12.00;99.90;;;;;;4992799;28;20237;-89
2023/06/06 03:30:48;;;;;;;18.70;14.60;;;12.00;99.90;;;;;;5010091;28;20680;-87
2023/06/06 03:33:15;;;;;;;13.73;13.10;;;12.10;99.90;;;;;;5010342;28;20175;-88
2023/06/06 03:35:42;;;;;;;15.10;14.10;;;12.20;99.90;;;;;;4960906;28;20645;-87
2023/06/06 03:38:08;;;;;;;15.53;14.90;;;12.20;99.90;;;;;;4992972;28;20274;-87
2023/06/06 03:40:34;;;;;;;15.10;14.10;;;12.20;99.90;;;;;;4993050;28;20271;-86
2023/06/06 03:43:00;;;;;;;14.47;13.77;;;12.20;99.90;;;;;;4992720;28;20179;-85
2023/06/06 03:45:25;;;;;;;15.43;14.57;;;12.20;99.90;;;;;;5009700;28;20285;-87
2023/06/06 03:47:51;;;;;;;16.17;15.37;;;12.20;99.90;;;;;;4976117;28;20306;-85
2023/06/06 03:50:18;;;;;;;15.40;14.47;;;12.30;99.90;;;;;;5009683;28;20183;-84
2023/06/06 03:52:45;;;;;;;15.80;15.20;;;12.30;99.90;;;;;;4991905;28;20780;-87
2023/06/06 03:55:11;;;;;;;15.13;14.00;;;12.40;99.90;;;;;;4960939;28;20180;-88
2023/06/06 03:57:40;;;;;;;15.43;14.80;;;12.50;99.90;;;;;;4993569;28;20180;-85
2023/06/06 04:00:16;;;;;;;16.27;15.30;;;12.50;99.90;;;;;;4993570;28;20349;-85
2023/06/06 04:02:46;;;;;;;16.23;15.13;;;12.60;99.90;;;;;;4993689;28;20171;-86
2023/06/06 04:05:13;;;;;;;16.53;15.93;;;12.60;99.90;;;;;;4981121;28;20175;-87
2023/06/06 04:07:39;;;;;;;16.10;15.40;;;12.60;99.90;;;;;;5014866;28;20218;-86
2023/06/06 04:10:05;;;;;;;17.47;15.97;;;12.60;99.90;;;;;;4997398;28;20381;-85
2023/06/06 04:12:31;;;;;;;16.67;16.07;;;12.60;99.90;;;;;;4997488;28;20274;-86
2023/06/06 04:14:57;;;;;;;17.47;16.20;;;12.70;99.90;;;;;;4997362;28;20242;-87
2023/06/06 04:17:29;;;;;;;17.60;16.73;;;12.60;99.90;;;;;;4997297;28;20205;-88
2023/06/06 04:19:55;;;;;;;19.63;18.40;;;12.70;99.90;;;;;;4997976;28;20175;-87
2023/06/06 04:22:25;;;;;;;17.57;16.87;;;12.80;99.90;;;;;;4997163;28;20186;-85
2023/06/06 04:24:51;;;;;;;17.57;16.87;;;12.80;99.90;;;;;;4981015;28;20201;-85
2023/06/06 04:27:18;;;;;;;17.73;17.03;;;12.90;99.90;;;;;;4996993;28;22146;-85
2023/06/06 04:29:44;;;;;;;19.40;18.50;;;12.90;99.90;;;;;;4997310;28;20195;-86
2023/06/06 04:32:13;;;;;;;16.07;14.97;;;12.90;99.90;;;;;;4996798;28;20298;-85
2023/06/06 04:34:41;;;;;;;17.10;15.97;;;12.80;99.90;;;;;;5014358;28;20239;-89
2023/06/06 04:37:08;;;;;;;16.20;15.50;;;12.80;99.90;;;;;;4996686;28;20246;-85
2023/06/06 04:39:35;;;;;;;18.77;18.07;;;12.80;99.90;;;;;;5013774;28;20187;-85
2023/06/06 04:42:02;;;;;;;14.10;13.50;;;12.80;99.90;;;;;;4996793;28;20215;-86
2023/06/06 04:44:28;;;;;;;13.13;12.33;;;12.80;99.90;;;;;;4995466;28;20314;-85
2023/06/06 04:47:04;;;;;;;16.73;13.93;;;12.90;99.90;;;;;;5014314;28;20283;-86
2023/06/06 04:49:35;;;;;;;13.33;12.63;;;13.10;99.90;;;;;;4982354;28;20180;-84
2023/06/06 04:52:05;;;;;;;14.57;13.97;;;13.10;99.90;;;;;;4997080;28;20203;-85
2023/06/06 04:54:35;;;;;;;13.00;11.97;;;13.20;99.90;;;;;;4996385;28;20262;-85
2023/06/06 04:57:00;;;;;;;9.83;9.43;;;13.50;99.90;;;;;;5014035;28;20309;-85
2023/06/06 04:59:27;;;;;;;11.13;10.53;;;13.50;99.90;;;;;;5012493;28;20411;-88
2023/06/06 05:01:55;;;;;;;8.90;8.27;;;13.50;99.90;;;;;;4995134;28;20178;-86
2023/06/06 05:04:22;;;;;;;9.50;8.23;;;13.40;99.90;;;;;;5012212;28;20241;-85
2023/06/06 05:06:48;;;;;;;9.63;9.03;;;13.40;99.90;;;;;;4994644;28;20262;-85
2023/06/06 05:09:14;;;;;;;8.60;8.20;;;13.50;99.90;;;;;;5012854;28;20302;-87
2023/06/06 05:11:49;;;;;;;10.83;10.03;;;13.60;99.90;;;;;;4979886;28;20564;-86
2023/06/06 05:14:15;;;;;;;9.27;8.87;;;13.80;99.90;;;;;;5012973;28;20217;-84
2023/06/06 05:16:46;;;;;;;8.20;7.90;;;14.80;99.90;;;;;;4994750;28;20183;-85
2023/06/06 05:19:13;;;;;;;8.67;8.27;;;14.90;99.90;;;;;;4996778;28;20234;-86
2023/06/06 05:21:38;;;;;;;8.67;8.23;;;14.60;99.90;;;;;;4980046;28;20176;-86
2023/06/06 05:24:04;;;;;;;9.13;8.73;;;15.10;99.90;;;;;;4980028;28;20253;-85
2023/06/06 05:26:30;;;;;;;7.93;7.63;;;16.40;99.90;;;;;;4980035;28;20211;-85
2023/06/06 05:28:56;;;;;;;7.60;6.90;;;17.50;99.90;;;;;;5012300;28;20364;-86
2023/06/06 05:31:21;;;;;;;6.20;5.90;;;17.40;99.90;;;;;;4994579;28;20183;-87
2023/06/06 05:33:47;;;;;;;6.73;6.23;;;17.00;99.90;;;;;;4978139;28;20187;-85
2023/06/06 05:36:14;;;;;;;10.17;9.77;;;18.50;99.90;;;;;;4994613;28;20540;-86
2023/06/06 05:38:40;;;;;;;26.90;25.90;;;19.30;99.90;;;;;;5011948;28;20183;-87
2023/06/06 05:41:05;;;;;;;45.50;43.63;;;18.80;99.90;;;;;;4980060;28;20261;-86
2023/06/06 05:43:33;;;;;;;49.90;48.23;;;17.30;99.90;;;;;;5008308;28;20184;-85
2023/06/06 05:46:01;;;;;;;59.87;58.00;;;18.60;99.90;;;;;;4994800;28;20231;-85
2023/06/06 05:48:27;;;;;;;73.70;70.70;;;19.10;99.90;;;;;;4977994;28;20222;-86
2023/06/06 05:50:54;;;;;;;49.27;47.33;;;20.20;99.90;;;;;;4993923;28;20194;-87
2023/06/06 05:53:22;;;;;;;35.87;34.63;;;20.70;99.90;;;;;;4993755;28;20274;-87
2023/06/06 05:55:47;;;;;;;34.13;32.93;;;20.20;99.90;;;;;;4995015;28;20589;-86
2023/06/06 05:58:13;;;;;;;34.70;33.40;;;20.20;99.90;;;;;;4962123;28;20195;-87
2023/06/06 06:00:39;;;;;;;35.17;33.83;;;20.10;99.90;;;;;;5012076;28;20183;-88
2023/06/06 06:03:07;;;;;;;38.73;37.23;;;19.50;99.90;;;;;;5012264;28;20637;-85
2023/06/06 06:05:33;;;;;;;37.57;36.07;;;18.80;99.90;;;;;;4994863;28;20764;-86
2023/06/06 06:08:00;;;;;;;29.57;28.53;;;17.40;99.90;;;;;;4995347;28;20264;-87
2023/06/06 06:10:30;;;;;;;37.63;36.20;;;17.20;99.90;;;;;;4995395;28;20265;-86
2023/06/06 06:12:57;;;;;;;35.70;34.50;;;18.90;99.90;;;;;;4994790;28;20983;-88
2023/06/06 06:15:23;;;;;;;33.67;32.47;;;20.10;99.90;;;;;;4995156;28;20629;-86
2023/06/06 06:17:50;;;;;;;38.17;35.87;;;20.80;99.90;;;;;;5012245;28;20298;-88
2023/06/06 06:20:16;;;;;;;42.87;41.40;;;21.90;99.90;;;;;;4995257;28;20183;-88
2023/06/06 06:22:43;;;;;;;61.57;59.37;;;21.90;99.90;;;;;;4995025;28;20664;-88
2023/06/06 06:25:13;;;;;;;68.83;66.33;;;22.30;99.90;;;;;;5011450;28;20183;-87
2023/06/06 06:27:43;;;;;;;65.20;63.10;;;23.10;99.90;;;;;;4995110;28;20222;-89
2023/06/06 06:30:10;;;;;;;54.47;52.57;;;23.50;99.90;;;;;;4994373;28;20183;-86
2023/06/06 06:32:41;;;;;;;47.27;45.67;;;23.10;99.90;;;;;;4994337;28;20183;-87
2023/06/06 06:35:08;;;;;;;44.40;42.60;;;23.50;99.90;;;;;;4994821;28;20164;-90
2023/06/06 06:37:37;;;;;;;43.75;41.88;;;22.00;99.90;;;;;;4994732;28;20198;-88
2023/06/06 06:40:09;;;;;;;43.60;42.08;;;21.40;99.90;;;;;;5011779;28;20621;-89
2023/06/06 06:42:39;;;;;;;37.78;36.33;;;20.50;99.90;;;;;;4995614;28;20688;-87
2023/06/06 06:45:11;;;;;;;42.57;41.00;;;20.30;99.90;;;;;;4987024;28;20234;-88
2023/06/06 06:47:38;;;;;;;46.47;44.77;;;19.70;99.90;;;;;;4971485;28;20232;-87
2023/06/06 06:50:05;;;;;;;45.43;43.90;;;20.40;99.90;;;;;;4939602;28;20577;-87
2023/06/06 06:52:35;;;;;;;46.43;44.73;;;18.80;99.90;;;;;;4955944;28;20184;-88
2023/06/06 06:55:04;;;;;;;46.67;45.13;;;19.20;99.90;;;;;;4956064;28;20181;-86
2023/06/06 06:57:31;;;;;;;41.80;40.40;;;20.60;99.90;;;;;;4972779;28;20193;-87
2023/06/06 06:59:58;;;;;;;39.77;38.40;;;22.10;99.90;;;;;;4971287;28;20243;-89
2023/06/06 07:02:28;;;;;;;32.27;31.17;;;22.40;99.90;;;;;;4971462;28;20646;-88
2023/06/06 07:04:57;;;;;;;24.00;23.05;;;22.10;99.90;;;;;;4972380;28;20246;-88
2023/06/06 07:07:24;;;;;;;21.27;20.55;;;23.30;99.90;;;;;;4940279;28;20191;-88
2023/06/06 07:09:50;;;;;;;17.02;16.38;;;24.30;99.90;;;;;;4971330;28;20181;-89
2023/06/06 07:12:16;;;;;;;14.77;14.18;;;23.40;99.90;;;;;;4971170;28;20216;-89
2023/06/06 07:14:42;;;;;;;14.60;14.00;;;22.10;99.90;;;;;;4954481;28;20220;-88
2023/06/06 07:17:08;;;;;;;13.98;13.27;;;22.30;99.90;;;;;;4970888;28;20757;-88
2023/06/06 07:19:35;;;;;;;13.43;12.82;;;22.60;99.90;;;;;;4939249;28;20269;-89
2023/06/06 07:22:05;;;;;;;13.70;13.00;;;23.00;99.90;;;;;;4939193;28;20781;-87
2023/06/06 07:24:31;;;;;;;14.00;13.20;;;22.80;99.90;;;;;;4924528;28;20192;-90
2023/06/06 07:26:59;;;;;;;12.05;11.55;;;21.10;99.90;;;;;;4971178;28;20189;-88
2023/06/06 07:29:26;;;;;;;11.95;11.40;;;20.50;99.90;;;;;;4939413;28;20208;-87
2023/06/06 07:31:54;;;;;;;13.43;12.82;;;21.20;99.90;;;;;;4939737;28;20176;-89
2023/06/06 07:34:21;;;;;;;11.70;11.10;;;21.90;99.90;;;;;;4970999;28;20184;-90
2023/06/06 07:36:47;;;;;;;11.60;11.10;;;23.10;99.90;;;;;;4938931;28;20181;-90
2023/06/06 07:39:13;;;;;;;13.63;12.95;;;23.10;99.90;;;;;;4970443;28;20180;-88
2023/06/06 07:41:42;;;;;;;10.45;10.05;;;23.10;99.90;;;;;;4955034;28;20201;-88
2023/06/06 07:44:08;;;;;;;13.68;13.02;;;21.80;99.90;;;;;;4944002;28;20286;-89
2023/06/06 07:46:33;;;;;;;12.93;12.32;;;21.00;99.90;;;;;;4993801;28;20595;-89
2023/06/06 07:48:59;;;;;;;13.73;12.80;;;20.60;99.90;;;;;;4977545;28;20226;-89
2023/06/06 07:51:25;;;;;;;12.95;12.25;;;20.70;99.90;;;;;;4960929;28;20210;-89
2023/06/06 07:53:51;;;;;;;13.68;12.32;;;20.90;99.90;;;;;;5010878;28;20191;-89
2023/06/06 07:56:18;;;;;;;13.80;13.20;;;21.50;99.90;;;;;;4993743;28;20184;-87
2023/06/06 07:58:52;;;;;;;13.13;12.50;;;22.80;99.90;;;;;;4993664;28;20184;-88
2023/06/06 08:01:23;;;;;;;14.10;13.27;;;23.40;99.90;;;;;;4993487;28;20257;-89
2023/06/06 08:03:49;;;;;;;13.27;12.15;;;24.00;99.90;;;;;;4993293;28;20172;-90
2023/06/06 08:06:23;;;;;;;12.77;12.18;;;23.50;99.90;;;;;;4960632;28;20176;-89
2023/06/06 08:08:49;;;;;;;12.48;11.77;;;24.10;99.90;;;;;;4993514;28;20230;-88
2023/06/06 08:11:17;;;;;;;10.68;10.23;;;23.70;99.90;;;;;;4993376;28;20274;-90
2023/06/06 08:13:43;;;;;;;11.40;10.90;;;23.30;99.90;;;;;;4993704;28;20208;-89
2023/06/06 08:16:09;;;;;;;11.95;11.25;;;22.90;99.90;;;;;;4994134;28;20195;-88
2023/06/06 08:18:37;;;;;;;13.55;12.85;;;21.10;99.90;;;;;;4993681;28;20179;-89
2023/06/06 08:21:03;;;;;;;14.32;13.45;;;19.20;99.90;;;;;;4993561;28;20253;-89
2023/06/06 08:23:29;;;;;;;14.30;13.57;;;19.00;99.90;;;;;;4977561;28;20182;-89
2023/06/06 08:25:58;;;;;;;11.53;11.03;;;18.40;99.90;;;;;;4976791;28;20240;-89
2023/06/06 08:28:25;;;;;;;12.48;11.80;;;19.30;99.90;;;;;;4976528;28;20239;-91
2023/06/06 08:30:52;;;;;;;12.23;11.63;;;21.40;99.90;;;;;;4982075;28;20259;-90
2023/06/06 08:33:19;;;;;;;12.35;11.52;;;21.90;99.90;;;;;;5015315;28;20186;-88
2023/06/06 08:35:45;;;;;;;13.68;13.07;;;21.40;99.90;;;;;;4977353;28;20230;-90
2023/06/06 08:38:11;;;;;;;13.52;12.70;;;20.60;99.90;;;;;;5010553;28;20176;-88
2023/06/06 08:40:38;;;;;;;12.93;12.30;;;20.30;99.90;;;;;;5010567;28;20222;-89
2023/06/06 08:43:06;;;;;;;13.68;12.88;;;21.40;99.90;;;;;;4960666;28;20191;-91
2023/06/06 08:45:32;;;;;;;13.88;13.07;;;21.80;99.90;;;;;;4992901;28;20263;-89
2023/06/06 08:48:02;;;;;;;14.60;13.35;;;21.90;99.90;;;;;;4960986;28;20647;-89
2023/06/06 08:50:29;;;;;;;13.60;12.87;;;20.60;99.90;;;;;;4977374;28;20179;-88
2023/06/06 08:52:56;;;;;;;13.10;12.40;;;21.10;99.90;;;;;;4996433;28;20625;-89
2023/06/06 08:55:22;;;;;;;14.40;13.13;;;21.40;99.90;;;;;;5013234;28;20186;-88
2023/06/06 08:57:48;;;;;;;14.10;13.32;;;21.00;99.90;;;;;;5012366;28;20175;-90
2023/06/06 09:00:24;;;;;;;12.60;12.00;;;21.70;99.90;;;;;;4996382;28;20179;-88
2023/06/06 09:02:52;;;;;;;13.77;13.05;;;21.20;99.90;;;;;;4998008;28;20215;-89
2023/06/06 09:05:19;;;;;;;15.02;14.27;;;20.90;99.90;;;;;;4996407;28;20175;-89
2023/06/06 09:07:48;;;;;;;15.98;15.07;;;19.50;99.90;;;;;;4996586;28;20200;-89
2023/06/06 09:10:15;;;;;;;14.63;13.93;;;18.30;99.90;;;;;;4996097;28;20270;-88
2023/06/06 09:12:42;;;;;;;13.47;12.67;;;19.40;99.90;;;;;;4980121;28;20188;-89
2023/06/06 09:15:08;;;;;;;14.50;13.60;;;19.10;99.90;;;;;;5013651;28;20651;-91
2023/06/06 09:17:38;;;;;;;13.10;12.50;;;19.70;99.90;;;;;;4996184;28;20192;-88
2023/06/06 09:20:15;;;;;;;12.43;11.53;;;19.10;99.90;;;;;;4996395;28;20191;-89
2023/06/06 09:22:43;;;;;;;11.87;10.87;;;19.30;99.90;;;;;;4980376;28;20182;-87
2023/06/06 09:25:27;;;;;;;11.63;10.87;;;20.00;99.90;;;;;;4996009;28;20214;-90
2023/06/06 09:28:01;;;;;;;12.30;11.67;;;19.60;99.90;;;;;;4979760;28;20289;-88
2023/06/06 09:30:32;;;;;;;10.03;9.63;;;19.30;99.90;;;;;;4995774;28;20179;-88
2023/06/06 09:33:01;;;;;;;11.00;10.23;;;20.40;99.90;;;;;;5013270;28;20171;-88
2023/06/06 09:35:31;;;;;;;12.17;11.47;;;19.70;99.90;;;;;;4979859;28;20179;-87
2023/06/06 09:38:03;;;;;;;9.87;9.43;;;19.30;99.90;;;;;;5012439;28;20195;-88
2023/06/06 09:40:29;;;;;;;10.27;9.67;;;19.30;99.90;;;;;;4995677;28;20263;-89
2023/06/06 09:42:58;;;;;;;11.63;11.03;;;19.10;99.90;;;;;;4979507;28;20375;-86
2023/06/06 09:45:24;;;;;;;10.53;10.03;;;18.50;99.90;;;;;;4994703;28;20239;-89
2023/06/06 09:47:51;;;;;;;11.90;11.30;;;19.20;99.90;;;;;;4963314;28;20669;-88
2023/06/06 09:50:19;;;;;;;13.13;12.00;;;18.60;99.90;;;;;;4979553;28;20179;-88
2023/06/06 09:52:49;;;;;;;11.13;10.43;;;18.80;99.90;;;;;;5012931;28;20176;-88
2023/06/06 09:55:16;;;;;;;12.90;12.23;;;19.40;99.90;;;;;;4995440;28;20190;-90
2023/06/06 09:57:44;;;;;;;18.00;17.07;;;19.30;99.90;;;;;;5012981;28;20179;-88
2023/06/06 10:00:14;;;;;;;11.80;11.00;;;19.90;99.90;;;;;;5012710;28;20215;-90
2023/06/06 10:02:43;;;;;;;10.87;10.27;;;20.30;99.90;;;;;;5012383;28;20266;-89
2023/06/06 10:05:11;;;;;;;12.93;12.13;;;20.10;99.90;;;;;;4995633;28;20183;-90
2023/06/06 10:07:44;;;;;;;12.00;11.47;;;19.60;99.90;;;;;;4995958;28;20245;-90
2023/06/06 10:10:12;;;;;;;13.33;12.43;;;19.20;99.90;;;;;;5012506;28;20274;-90
2023/06/06 10:12:38;;;;;;;12.00;11.33;;;19.10;99.90;;;;;;4995390;28;20180;-88
2023/06/06 10:15:07;;;;;;;12.77;11.93;;;19.00;99.90;;;;;;4979287;28;20180;-88
2023/06/06 10:17:38;;;;;;;10.30;9.67;;;19.60;99.90;;;;;;5012041;28;20188;-89
2023/06/06 10:20:06;;;;;;;13.10;12.03;;;18.90;99.90;;;;;;4995251;28;20176;-88
2023/06/06 10:22:36;;;;;;;11.17;10.47;;;18.90;99.90;;;;;;4979424;28;20176;-89
2023/06/06 10:25:03;;;;;;;12.47;11.63;;;18.70;99.90;;;;;;4978892;28;20206;-88
2023/06/06 10:27:41;;;;;;;12.10;11.60;;;19.40;99.90;;;;;;4994918;28;20223;-89
2023/06/06 10:30:07;;;;;;;12.60;11.87;;;19.30;99.90;;;;;;5012201;28;20186;-88
2023/06/06 10:32:45;;;;;;;12.37;11.50;;;20.00;99.90;;;;;;4994727;28;20180;-87
2023/06/06 10:35:13;;;;;;;12.93;12.23;;;19.50;99.90;;;;;;5011873;28;20174;-87
2023/06/06 10:37:39;;;;;;;13.40;12.70;;;19.70;99.90;;;;;;4978123;28;20191;-86
2023/06/06 10:40:09;;;;;;;10.20;9.57;;;19.10;99.90;;;;;;4994969;28;20242;-91
2023/06/06 10:42:41;;;;;;;10.53;10.00;;;19.30;99.90;;;;;;4994656;28;20270;-86
2023/06/06 10:45:08;;;;;;;13.23;12.40;;;18.90;99.90;;;;;;4977915;28;20231;-89
2023/06/06 10:47:38;;;;;;;12.13;11.50;;;18.10;99.90;;;;;;4977862;28;20212;-88
2023/06/06 10:50:12;;;;;;;15.47;14.87;;;18.30;99.90;;;;;;5012085;28;20188;-91
2023/06/06 10:52:48;;;;;;;17.67;16.27;;;18.80;99.90;;;;;;4994329;28;20182;-90
2023/06/06 10:55:23;;;;;;;15.17;14.47;;;19.00;99.90;;;;;;5012221;28;20186;-91
2023/06/06 10:58:19;;;;;;;14.80;14.10;;;18.90;99.90;;;;;;4994614;28;20186;-92
2023/06/06 11:00:50;;;;;;;14.47;13.73;;;19.00;99.90;;;;;;4992642;28;20592;-91
2023/06/06 11:03:30;;;;;;;17.47;16.70;;;18.10;99.90;;;;;;4994412;28;20195;-90
2023/06/06 11:06:05;;;;;;;20.07;19.13;;;18.70;99.90;;;;;;4994815;28;20565;-89
2023/06/06 11:08:32;;;;;;;16.90;16.30;;;18.80;99.90;;;;;;4994566;28;20198;-91
2023/06/06 11:11:18;;;;;;;18.70;17.53;;;19.40;99.90;;;;;;4994337;28;20341;-93
2023/06/06 11:14:04;;;;;;;18.00;16.93;;;19.10;99.90;;;;;;4993717;28;20188;-90
2023/06/06 11:16:51;;;;;;;20.40;19.23;;;18.90;99.90;;;;;;4962095;28;20179;-89
2023/06/06 11:19:19;;;;;;;24.97;23.97;;;18.50;99.90;;;;;;4994402;28;20178;-90
2023/06/06 11:21:48;;;;;;;18.27;17.37;;;18.90;99.90;;;;;;4977092;28;20180;-90
2023/06/06 11:24:15;;;;;;;19.67;18.67;;;18.90;99.90;;;;;;4992430;28;20295;-89
2023/06/06 11:26:42;;;;;;;18.27;17.40;;;18.70;99.90;;;;;;4993075;28;20190;-90
2023/06/06 11:29:10;;;;;;;18.10;17.23;;;19.00;99.90;;;;;;4993703;28;20210;-90
2023/06/06 11:31:38;;;;;;;22.57;21.17;;;18.90;99.90;;;;;;4993868;28;20265;-91
2023/06/06 11:34:11;;;;;;;19.57;18.40;;;18.60;99.90;;;;;;5010797;28;20265;-89
2023/06/06 11:36:41;;;;;;;23.93;22.87;;;18.40;99.90;;;;;;5013984;28;20187;-90
2023/06/06 11:39:10;;;;;;;25.10;23.67;;;18.50;99.90;;;;;;5031622;28;20160;-91
2023/06/06 11:41:47;;;;;;;34.30;33.00;;;18.60;99.90;;;;;;4999106;28;20183;-90
2023/06/06 11:44:16;;;;;;;27.97;26.73;;;17.80;99.90;;;;;;4977674;28;20171;-92
2023/06/06 11:46:51;;;;;;;29.40;28.27;;;18.10;99.90;;;;;;5010356;28;20200;-90
2023/06/06 11:49:21;;;;;;;37.50;35.80;;;18.00;99.90;;;;;;4978163;28;20210;-90
2023/06/06 11:51:57;;;;;;;32.27;31.07;;;17.90;99.90;;;;;;5011475;28;20207;-91
2023/06/06 11:54:24;;;;;;;38.27;36.73;;;17.80;99.90;;;;;;4993426;28;20226;-90
2023/06/06 11:56:52;;;;;;;41.33;39.33;;;17.60;99.90;;;;;;4993806;28;20667;-91
2023/06/06 11:59:19;;;;;;;43.37;41.57;;;17.60;99.90;;;;;;4977731;28;20184;-91
2023/06/06 12:01:56;;;;;;;44.30;42.60;;;17.80;99.90;;;;;;4993859;28;20190;-90
2023/06/06 12:04:24;;;;;;;41.77;39.77;;;17.90;99.90;;;;;;4994711;28;20172;-88
2023/06/06 12:06:54;;;;;;;41.90;40.30;;;17.70;99.90;;;;;;4977753;28;20222;-90
2023/06/06 12:09:23;;;;;;;43.50;41.70;;;17.70;99.90;;;;;;4961670;28;20231;-90
2023/06/06 12:12:04;;;;;;;43.53;41.73;;;17.60;99.90;;;;;;4977874;28;20175;-89
2023/06/06 12:14:32;;;;;;;43.17;41.67;;;17.70;99.90;;;;;;4993309;28;20218;-90
2023/06/06 12:17:05;;;;;;;47.30;45.60;;;17.80;99.90;;;;;;4993274;28;20187;-90
2023/06/06 12:19:31;;;;;;;45.00;42.93;;;17.80;99.90;;;;;;4993086;28;20191;-88
2023/06/06 12:21:57;;;;;;;47.67;45.67;;;17.70;99.90;;;;;;5010778;28;20390;-90
2023/06/06 12:24:29;;;;;;;42.13;40.07;;;17.30;99.90;;;;;;4961169;28;20633;-89
2023/06/06 12:26:59;;;;;;;44.97;43.37;;;17.10;99.90;;;;;;4997542;28;20171;-89
2023/06/06 12:29:30;;;;;;;46.33;44.73;;;17.30;99.90;;;;;;4997259;28;20247;-90
2023/06/06 12:32:16;;;;;;;50.33;48.60;;;17.10;99.90;;;;;;4997502;28;20188;-91